createdAt,value
2018-12-26T00:01:22.518Z,6.60
2018-12-26T00:04:25.743Z,7.57
2018-12-26T00:07:28.904Z,11.40
2018-12-26T00:10:32.248Z,7.57
2018-12-26T00:13:35.294Z,7.37
2018-12-26T00:16:38.603Z,9.57
2018-12-26T00:19:41.799Z,8.03
2018-12-26T00:22:45.133Z,9.03
2018-12-26T00:25:48.179Z,6.33
2018-12-26T00:28:52.238Z,6.07
2018-12-26T00:31:55.488Z,8.10
2018-12-26T00:34:58.622Z,8.97
2018-12-26T00:38:01.666Z,11.67
2018-12-26T00:41:04.875Z,4.40
2018-12-26T00:44:08.099Z,4.50
2018-12-26T00:47:11.262Z,4.27
2018-12-26T00:50:14.499Z,5.10
2018-12-26T00:53:17.651Z,5.20
2018-12-26T00:56:20.940Z,6.23
2018-12-26T00:59:23.936Z,7.23
2018-12-26T01:02:27.075Z,8.20
2018-12-26T01:05:30.253Z,7.30
2018-12-26T01:08:33.448Z,10.07
2018-12-26T01:11:36.607Z,6.53
2018-12-26T01:14:39.807Z,3.80
2018-12-26T01:17:43.004Z,7.50
2018-12-26T01:20:46.098Z,6.03
2018-12-26T01:23:49.199Z,5.47
2018-12-26T01:26:52.287Z,7.83
2018-12-26T01:29:55.522Z,5.13
2018-12-26T01:32:58.578Z,5.40
2018-12-26T01:36:01.723Z,7.07
2018-12-26T01:39:06.187Z,4.90
2018-12-26T01:42:09.287Z,4.97
2018-12-26T01:45:13.523Z,9.20
2018-12-26T01:48:16.701Z,5.73
2018-12-26T01:51:20.147Z,7.10
2018-12-26T01:54:23.395Z,12.25
2018-12-26T01:57:26.488Z,5.57
2018-12-26T02:00:29.679Z,11.70
2018-12-26T02:03:32.782Z,10.43
2018-12-26T02:06:35.975Z,9.87
2018-12-26T02:09:39.067Z,9.57
2018-12-26T02:12:42.263Z,7.67
2018-12-26T02:15:45.447Z,11.05
2018-12-26T02:18:48.852Z,19.43
2018-12-26T02:21:52.151Z,9.17
2018-12-26T02:24:55.242Z,9.17
2018-12-26T02:27:58.331Z,9.13
2018-12-26T02:31:01.428Z,11.38
2018-12-26T02:34:04.522Z,5.57
2018-12-26T02:37:07.615Z,6.97
2018-12-26T02:40:10.811Z,10.47
2018-12-26T02:43:14.008Z,14.77
2018-12-26T02:46:17.191Z,7.30
2018-12-26T02:49:20.395Z,5.87
2018-12-26T02:52:23.493Z,10.13
2018-12-26T02:55:26.575Z,8.00
2018-12-26T02:58:29.873Z,9.83
2018-12-26T03:01:32.996Z,17.43
2018-12-26T03:04:36.159Z,10.00
2018-12-26T03:07:39.291Z,4.10
2018-12-26T03:10:42.447Z,8.55
2018-12-26T03:13:45.680Z,12.43
2018-12-26T03:16:48.731Z,8.95
2018-12-26T03:19:51.968Z,6.60
2018-12-26T03:22:55.034Z,7.50
2018-12-26T03:25:58.268Z,9.73
2018-12-26T03:29:01.418Z,13.30
2018-12-26T03:32:04.741Z,8.80
2018-12-26T03:35:08.003Z,7.05
2018-12-26T03:38:11.141Z,8.10
2018-12-26T03:41:14.203Z,9.03
2018-12-26T03:44:17.531Z,7.43
2018-12-26T03:47:20.592Z,6.67
2018-12-26T03:50:23.813Z,7.20
2018-12-26T03:53:27.077Z,10.90
2018-12-26T03:56:30.311Z,4.70
2018-12-26T03:59:33.377Z,5.83
2018-12-26T04:02:36.507Z,5.20
2018-12-26T04:05:39.754Z,7.12
2018-12-26T04:08:42.674Z,8.17
2018-12-26T04:11:45.829Z,12.47
2018-12-26T04:14:49.168Z,4.60
2018-12-26T04:17:52.319Z,8.93
2018-12-26T04:20:55.455Z,3.87
2018-12-26T04:23:58.503Z,9.47
2018-12-26T04:27:01.631Z,6.83
2018-12-26T04:30:05.891Z,6.87
2018-12-26T04:33:09.166Z,11.03
2018-12-26T04:36:12.308Z,8.00
2018-12-26T04:39:15.534Z,5.20
2018-12-26T04:42:18.610Z,6.70
2018-12-26T04:45:21.696Z,6.90
2018-12-26T04:48:24.840Z,4.73
2018-12-26T04:51:28.078Z,8.97
2018-12-26T04:54:31.632Z,5.17
2018-12-26T04:57:34.777Z,6.23
2018-12-26T05:00:38.127Z,5.03
2018-12-26T05:03:41.168Z,8.60
2018-12-26T05:06:44.300Z,3.93
2018-12-26T05:09:47.357Z,6.43
2018-12-26T05:12:50.447Z,8.38
2018-12-26T05:15:53.643Z,6.67
2018-12-26T05:18:56.735Z,10.77
2018-12-26T05:21:59.828Z,8.60
2018-12-26T05:25:03.027Z,12.10
2018-12-26T05:28:06.118Z,9.27
2018-12-26T05:31:09.206Z,7.27
2018-12-26T05:34:12.299Z,6.97
2018-12-26T05:37:15.395Z,14.43
2018-12-26T05:40:18.759Z,9.63
2018-12-26T05:43:21.891Z,10.33
2018-12-26T05:46:24.974Z,13.70
2018-12-26T05:49:28.170Z,14.33
2018-12-26T05:52:31.367Z,12.00
2018-12-26T05:55:36.431Z,14.77
2018-12-26T05:58:39.601Z,12.93
2018-12-26T06:01:42.799Z,14.67
2018-12-26T06:04:45.887Z,16.77
2018-12-26T06:07:48.983Z,15.73
2018-12-26T06:10:52.072Z,22.37
2018-12-26T06:13:55.270Z,20.73
2018-12-26T06:16:58.463Z,17.50
2018-12-26T06:20:01.559Z,20.53
2018-12-26T06:23:04.759Z,16.97
2018-12-26T06:26:07.878Z,15.53
2018-12-26T06:29:11.034Z,19.70
2018-12-26T06:32:14.163Z,24.67
2018-12-26T06:35:17.223Z,27.87
2018-12-26T06:38:20.363Z,20.93
2018-12-26T06:41:23.411Z,19.80
2018-12-26T06:44:26.534Z,21.37
2018-12-26T06:47:29.599Z,22.93
2018-12-26T06:50:32.723Z,21.40
2018-12-26T06:53:35.782Z,20.83
2018-12-26T06:56:39.007Z,23.18
2018-12-26T06:59:42.171Z,22.37
2018-12-26T07:02:45.618Z,27.70
2018-12-26T07:05:48.663Z,23.90
2018-12-26T07:08:51.926Z,26.17
2018-12-26T07:11:55.057Z,25.20
2018-12-26T07:14:58.179Z,28.43
2018-12-26T07:18:01.239Z,26.62
2018-12-26T07:21:04.363Z,27.50
2018-12-26T07:24:07.423Z,23.90
2018-12-26T07:27:10.518Z,33.77
2018-12-26T07:30:13.659Z,27.63
2018-12-26T07:33:16.708Z,33.07
2018-12-26T07:36:19.827Z,35.37
2018-12-26T07:39:22.887Z,28.83
2018-12-26T07:42:26.224Z,28.50
2018-12-26T07:45:29.483Z,29.10
2018-12-26T07:48:32.686Z,28.17
2018-12-26T07:51:35.771Z,29.33
2018-12-26T07:54:38.967Z,32.57
2018-12-26T07:57:42.159Z,29.43
2018-12-26T08:00:45.358Z,29.90
2018-12-26T08:03:48.450Z,27.17
2018-12-26T08:06:51.542Z,30.07
2018-12-26T08:09:54.666Z,30.37
2018-12-26T08:12:57.730Z,28.63
2018-12-26T08:16:00.859Z,29.17
2018-12-26T08:19:04.017Z,28.70
2018-12-26T08:22:07.117Z,28.33
2018-12-26T08:25:10.198Z,27.23
2018-12-26T08:28:13.295Z,35.07
2018-12-26T08:31:16.486Z,30.00
2018-12-26T08:34:19.683Z,33.10
2018-12-26T08:37:22.879Z,34.47
2018-12-26T08:40:26.078Z,35.00
2018-12-26T08:43:29.267Z,37.30
2018-12-26T08:46:32.363Z,40.58
2018-12-26T08:49:35.555Z,39.67
2018-12-26T08:52:38.654Z,40.30
2018-12-26T08:55:41.843Z,38.37
2018-12-26T08:58:44.939Z,41.70
2018-12-26T09:01:48.131Z,41.47
2018-12-26T09:04:51.227Z,45.77
2018-12-26T09:07:54.451Z,38.97
2018-12-26T09:10:57.515Z,39.93
2018-12-26T09:14:00.707Z,35.97
2018-12-26T09:17:04.002Z,35.53
2018-12-26T09:20:07.099Z,30.43
2018-12-26T09:23:10.191Z,35.07
2018-12-26T09:26:13.591Z,27.70
2018-12-26T09:29:16.682Z,30.32
2018-12-26T09:32:19.783Z,33.33
2018-12-26T09:35:22.878Z,33.25
2018-12-26T09:38:25.958Z,25.70
2018-12-26T09:41:29.058Z,27.57
2018-12-26T09:44:32.246Z,23.02
2018-12-26T09:47:35.494Z,24.18
2018-12-26T09:50:38.534Z,23.18
2018-12-26T09:53:41.670Z,21.63
2018-12-26T09:56:45.026Z,21.23
2018-12-26T09:59:48.166Z,26.03
2018-12-26T10:02:51.315Z,29.50
2018-12-26T10:05:54.543Z,23.00
2018-12-26T10:08:57.348Z,23.83
2018-12-26T10:12:00.508Z,26.67
2018-12-26T10:15:04.075Z,24.70
2018-12-26T10:18:07.207Z,20.57
2018-12-26T10:21:10.371Z,17.92
2018-12-26T10:24:13.616Z,19.67
2018-12-26T10:27:16.854Z,22.27
2018-12-26T10:30:19.983Z,20.07
2018-12-26T10:33:23.044Z,25.17
2018-12-26T10:36:26.377Z,20.50
2018-12-26T10:39:29.535Z,18.73
2018-12-26T10:42:32.666Z,21.57
2018-12-26T10:45:35.934Z,21.03
2018-12-26T10:48:39.065Z,20.43
2018-12-26T10:51:42.151Z,22.47
2018-12-26T10:54:45.250Z,22.33
2018-12-26T10:57:48.299Z,21.97
2018-12-26T11:00:51.442Z,19.55
2018-12-26T11:03:54.582Z,21.17
2018-12-26T11:06:57.828Z,15.43
2018-12-26T11:10:01.080Z,18.20
2018-12-26T11:13:04.207Z,17.00
2018-12-26T11:16:07.368Z,16.33
2018-12-26T11:19:10.815Z,16.87
2018-12-26T11:22:13.858Z,15.67
2018-12-26T11:25:16.987Z,15.70
2018-12-26T11:28:20.047Z,15.33
2018-12-26T11:31:23.199Z,18.13
2018-12-26T11:34:26.227Z,18.90
2018-12-26T11:37:29.356Z,19.23
2018-12-26T11:40:32.414Z,15.67
2018-12-26T11:43:35.870Z,14.27
2018-12-26T11:46:39.831Z,13.95
2018-12-26T11:49:42.968Z,15.77
2018-12-26T11:52:46.122Z,12.17
2018-12-26T11:55:49.247Z,15.43
2018-12-26T11:58:52.303Z,14.93
2018-12-26T12:01:55.499Z,11.27
2018-12-26T12:04:58.595Z,12.50
2018-12-26T12:08:01.690Z,13.70
2018-12-26T12:11:04.775Z,10.00
2018-12-26T12:14:09.619Z,10.60
2018-12-26T12:17:12.700Z,11.33
2018-12-26T12:20:15.900Z,10.33
2018-12-26T12:23:18.840Z,10.07
2018-12-26T12:26:21.984Z,9.70
2018-12-26T12:29:25.171Z,11.53
2018-12-26T12:32:28.272Z,12.90
2018-12-26T12:35:31.663Z,10.58
2018-12-26T12:38:34.973Z,11.33
2018-12-26T12:41:38.062Z,11.03
2018-12-26T12:44:41.163Z,12.33
2018-12-26T12:47:44.243Z,10.70
2018-12-26T12:50:47.339Z,10.40
2018-12-26T12:53:50.428Z,9.63
2018-12-26T12:56:53.532Z,12.70
2018-12-26T12:59:56.715Z,12.17
2018-12-26T13:03:00.578Z,12.60
2018-12-26T13:06:04.035Z,13.87
2018-12-26T13:09:07.331Z,15.77
2018-12-26T13:12:10.927Z,16.13
2018-12-26T13:15:14.024Z,9.17
2018-12-26T13:18:17.116Z,13.30
2018-12-26T13:21:20.537Z,12.43
2018-12-26T13:24:23.713Z,12.03
2018-12-26T13:27:27.107Z,13.67
2018-12-26T13:30:30.303Z,14.33
2018-12-26T13:33:33.548Z,12.70
2018-12-26T13:36:36.802Z,12.03
2018-12-26T13:39:39.932Z,12.07
2018-12-26T13:42:43.088Z,11.23
2018-12-26T13:45:46.211Z,18.60
2018-12-26T13:48:49.274Z,13.07
2018-12-26T13:51:52.503Z,13.20
2018-12-26T13:54:55.559Z,14.90
2018-12-26T13:57:58.763Z,12.07
2018-12-26T14:01:01.983Z,15.00
2018-12-26T14:04:05.253Z,15.87
2018-12-26T14:07:08.476Z,18.63
2018-12-26T14:10:11.539Z,16.93
2018-12-26T14:13:14.664Z,17.30
2018-12-26T14:16:17.823Z,16.87
2018-12-26T14:19:21.019Z,20.37
2018-12-26T14:22:24.249Z,20.77
2018-12-26T14:25:27.307Z,17.73
2018-12-26T14:28:30.536Z,15.90
2018-12-26T14:31:33.595Z,21.37
2018-12-26T14:34:36.491Z,26.40
2018-12-26T14:37:39.616Z,22.87
2018-12-26T14:40:42.667Z,19.43
2018-12-26T14:43:45.899Z,29.73
2018-12-26T14:46:49.307Z,26.53
2018-12-26T14:49:53.313Z,22.70
2018-12-26T14:52:56.571Z,21.87
2018-12-26T14:55:59.690Z,19.57
2018-12-26T14:59:02.863Z,26.83
2018-12-26T15:02:06.062Z,27.30
2018-12-26T15:05:09.151Z,31.17
2018-12-26T15:08:12.251Z,28.40
2018-12-26T15:11:15.595Z,31.53
2018-12-26T15:14:18.842Z,29.47
2018-12-26T15:17:22.068Z,28.53
2018-12-26T15:20:25.235Z,27.67
2018-12-26T15:23:28.325Z,24.60
2018-12-26T15:26:31.411Z,20.67
2018-12-26T15:29:34.507Z,22.70
2018-12-26T15:32:37.599Z,22.27
2018-12-26T15:35:40.699Z,16.80
2018-12-26T15:38:44.136Z,22.20
2018-12-26T15:41:47.186Z,18.77
2018-12-26T15:44:50.285Z,19.40
2018-12-26T15:47:53.507Z,15.93
2018-12-26T15:50:56.671Z,17.97
2018-12-26T15:53:59.760Z,20.17
2018-12-26T15:57:02.859Z,19.17
2018-12-26T16:00:06.467Z,20.77
2018-12-26T16:03:09.555Z,19.93
2018-12-26T16:06:12.995Z,18.40
2018-12-26T16:09:16.156Z,21.23
2018-12-26T16:12:19.255Z,20.10
2018-12-26T16:15:22.346Z,24.93
2018-12-26T16:18:25.438Z,23.50
2018-12-26T16:21:28.535Z,19.02
2018-12-26T16:24:31.623Z,21.83
2018-12-26T16:27:34.715Z,21.70
2018-12-26T16:30:45.958Z,24.97
2018-12-26T16:33:42.846Z,24.87
2018-12-26T16:36:45.947Z,25.23
2018-12-26T16:39:50.200Z,25.53
2018-12-26T16:42:53.359Z,28.25
2018-12-26T16:45:56.487Z,25.55
2018-12-26T16:48:59.542Z,29.37
2018-12-26T16:52:02.766Z,30.27
2018-12-26T16:55:06.931Z,27.70
2018-12-26T16:58:10.083Z,26.80
2018-12-26T17:01:13.239Z,30.13
2018-12-26T17:04:16.367Z,27.70
2018-12-26T17:07:19.475Z,32.60
2018-12-26T17:10:22.935Z,25.67
2018-12-26T17:13:26.059Z,25.85
2018-12-26T17:16:29.115Z,31.23
2018-12-26T17:19:32.244Z,30.53
2018-12-26T17:22:35.304Z,30.93
2018-12-26T17:25:38.523Z,30.13
2018-12-26T17:28:41.691Z,28.65
2018-12-26T17:31:44.786Z,27.80
2018-12-26T17:34:48.019Z,32.73
2018-12-26T17:37:51.174Z,32.17
2018-12-26T17:40:54.299Z,27.70
2018-12-26T17:43:57.358Z,26.80
2018-12-26T17:47:00.487Z,26.03
2018-12-26T17:50:59.351Z,28.43
2018-12-26T17:54:58.566Z,33.60
2018-12-26T17:58:01.655Z,31.47
2018-12-26T18:01:23.383Z,31.57
2018-12-26T18:04:26.482Z,34.97
2018-12-26T18:07:29.650Z,33.83
2018-12-26T18:10:32.915Z,38.90
2018-12-26T18:13:36.058Z,35.27
2018-12-26T18:16:39.186Z,41.73
2018-12-26T18:19:42.099Z,35.43
2018-12-26T18:22:45.271Z,36.25
2018-12-26T18:25:48.430Z,38.13
2018-12-26T18:28:51.559Z,39.55
2018-12-26T18:31:54.619Z,38.83
2018-12-26T18:34:57.747Z,46.20
2018-12-26T18:38:00.875Z,40.58
2018-12-26T18:41:03.999Z,39.55
2018-12-26T18:44:07.127Z,40.17
2018-12-26T18:47:10.183Z,43.75
2018-12-26T18:50:13.319Z,38.67
2018-12-26T18:53:16.466Z,40.80
2018-12-26T18:56:19.700Z,39.67
2018-12-26T18:59:22.863Z,35.30
2018-12-26T19:02:25.995Z,43.50
2018-12-26T19:05:29.255Z,44.40
2018-12-26T19:08:32.380Z,47.20
2018-12-26T19:11:35.439Z,46.90
2018-12-26T19:14:40.338Z,48.50
2018-12-26T19:17:43.566Z,52.83
2018-12-26T19:20:46.699Z,61.30
2018-12-26T19:23:49.959Z,50.58
2018-12-26T19:26:53.094Z,51.95
2018-12-26T19:29:59.402Z,62.45
2018-12-26T19:33:01.221Z,59.18
2018-12-26T19:36:04.383Z,75.50
2018-12-26T19:39:07.509Z,69.82
2018-12-26T19:42:10.667Z,87.97
2018-12-26T19:45:13.807Z,73.95
2018-12-26T19:48:16.851Z,96.05
2018-12-26T19:51:19.974Z,84.20
2018-12-26T19:54:23.139Z,82.23
2018-12-26T19:57:26.339Z,102.72
2018-12-26T20:00:29.427Z,99.00
2018-12-26T20:03:32.523Z,102.65
2018-12-26T20:06:35.648Z,100.53
2018-12-26T20:09:38.810Z,101.37
2018-12-26T20:12:42.009Z,90.32
2018-12-26T20:15:45.195Z,92.75
2018-12-26T20:18:48.470Z,99.87
2018-12-26T20:21:51.583Z,94.70
2018-12-26T20:24:54.684Z,84.52
2018-12-26T20:27:57.806Z,91.70
2018-12-26T20:31:00.866Z,108.97
2018-12-26T20:34:04.063Z,83.73
2018-12-26T20:37:07.259Z,89.92
2018-12-26T20:40:10.355Z,110.35
2018-12-26T20:43:13.442Z,113.10
2018-12-26T20:46:16.638Z,108.73
2018-12-26T20:49:19.726Z,121.82
2018-12-26T20:52:22.926Z,97.20
2018-12-26T20:55:26.059Z,90.75
2018-12-26T20:58:29.211Z,102.10
2018-12-26T21:01:32.412Z,104.03
2018-12-26T21:04:35.659Z,82.62
2018-12-26T21:07:38.906Z,86.97
2018-12-26T21:10:42.098Z,73.90
2018-12-26T21:13:45.190Z,80.47
2018-12-26T21:16:54.955Z,75.70
2018-12-26T21:19:53.322Z,81.78
2018-12-26T21:22:56.416Z,74.05
2018-12-26T21:25:59.503Z,72.32
2018-12-26T21:29:02.603Z,84.62
2018-12-26T21:32:13.905Z,93.65
2018-12-26T21:35:10.793Z,90.75
2018-12-26T21:38:14.055Z,96.22
2018-12-26T21:41:17.118Z,82.80
2018-12-26T21:44:20.214Z,107.30
2018-12-26T21:47:23.407Z,86.47
2018-12-26T21:50:26.633Z,109.70
2018-12-26T21:53:29.799Z,108.47
2018-12-26T21:56:33.023Z,102.17
2018-12-26T21:59:36.083Z,92.53
2018-12-26T22:02:39.315Z,100.12
2018-12-26T22:05:42.582Z,103.50
2018-12-26T22:08:46.694Z,94.13
2018-12-26T22:11:49.922Z,105.35
2018-12-26T22:14:52.710Z,96.63
2018-12-26T22:17:55.522Z,110.42
2018-12-26T22:20:58.310Z,94.58
2018-12-26T22:24:01.166Z,121.83
2018-12-26T22:27:03.947Z,94.17
2018-12-26T22:30:09.446Z,107.73
2018-12-26T22:33:12.331Z,112.50
2018-12-26T22:36:15.125Z,90.45
2018-12-26T22:39:17.943Z,107.83
2018-12-26T22:42:20.733Z,100.20
2018-12-26T22:45:23.551Z,86.23
2018-12-26T22:48:26.334Z,76.63
2018-12-26T22:51:29.122Z,75.62
2018-12-26T22:54:32.015Z,68.37
2018-12-26T22:57:34.808Z,80.20
2018-12-26T23:00:44.929Z,75.60
2018-12-26T23:03:47.707Z,81.50
2018-12-26T23:06:50.559Z,86.85
2018-12-26T23:09:53.347Z,72.60
2018-12-26T23:12:56.132Z,69.95
2018-12-26T23:15:58.921Z,65.20
2018-12-26T23:19:01.699Z,59.50
2018-12-26T23:22:04.621Z,75.37
2018-12-26T23:25:07.463Z,71.83
2018-12-26T23:28:10.387Z,66.07
2018-12-26T23:31:13.187Z,70.60
2018-12-26T23:34:16.015Z,75.40
2018-12-26T23:37:18.803Z,65.13
2018-12-26T23:40:21.611Z,63.03
2018-12-26T23:43:24.402Z,70.78
2018-12-26T23:46:27.183Z,71.15
2018-12-26T23:49:29.964Z,65.77
2018-12-26T23:52:33.351Z,66.03
2018-12-26T23:55:36.184Z,73.80
2018-12-26T23:58:38.984Z,72.65
